Time;durP1;ratioP1;P1;durP2;ratioP2;P2;SDS_P1;SDS_P2;PMS_P1;PMS_P2;Temp;Humidity;BMP_temperature;BMP_pressure;BME280_temperature;BME280_humidity;BME280_pressure;Samples;Min_cycle;Max_cycle;Signal;HPM_P1;HPM_P2
2022/09/18 00:00:59;;;;;;;1.27;1.27;;;;;;;21.97;100.00;98609.34;5071347;28;20210;-75
2022/09/18 00:03:27;;;;;;;1.52;1.42;;;;;;;22.06;100.00;98624.69;5071161;28;20315;-75
2022/09/18 00:05:54;;;;;;;2.30;1.80;;;;;;;22.08;100.00;98643.91;5061928;28;20203;-75
2022/09/18 00:08:22;;;;;;;6.55;1.90;;;;;;;22.17;100.00;98643.41;5036045;28;20693;-74
2022/09/18 00:10:49;;;;;;;2.22;2.13;;;;;;;21.97;100.00;98634.91;5068273;28;20627;-74
2022/09/18 00:13:16;;;;;;;4.57;3.53;;;;;;;21.84;100.00;98642.56;5064737;28;20883;-74
2022/09/18 00:15:42;;;;;;;7.82;3.80;;;;;;;21.64;100.00;98632.22;5066137;28;20207;-75
2022/09/18 00:18:09;;;;;;;6.32;3.83;;;;;;;21.75;100.00;98658.91;5053896;28;20211;-75
2022/09/18 00:20:37;;;;;;;4.10;3.63;;;;;;;21.58;100.00;98659.78;5048381;28;20269;-75
2022/09/18 00:23:04;;;;;;;3.05;2.85;;;;;;;21.17;100.00;98661.91;5026326;28;20211;-75
2022/09/18 00:25:32;;;;;;;2.88;1.95;;;;;;;21.27;100.00;98697.41;5045518;28;20203;-75
2022/09/18 00:27:59;;;;;;;1.90;1.80;;;;;;;21.06;100.00;98706.38;5051645;28;20198;-74
2022/09/18 00:30:26;;;;;;;5.50;1.58;;;;;;;20.97;100.00;98730.56;5051371;28;20203;-75
2022/09/18 00:32:52;;;;;;;5.78;1.58;;;;;;;20.87;100.00;98745.06;5051777;28;20207;-75
2022/09/18 00:35:20;;;;;;;2.38;1.30;;;;;;;20.60;100.00;98725.31;5051550;28;20210;-75
2022/09/18 00:37:46;;;;;;;3.67;1.05;;;;;;;20.28;100.00;98722.41;5051409;28;20710;-74
2022/09/18 00:40:14;;;;;;;3.88;1.10;;;;;;;20.43;100.00;98733.16;5051274;28;20196;-72
2022/09/18 00:42:42;;;;;;;1.20;1.20;;;;;;;20.47;100.00;98743.50;5050858;28;20235;-74
2022/09/18 00:45:10;;;;;;;1.20;1.08;;;;;;;20.39;100.00;98750.88;5051090;28;20239;-74
2022/09/18 00:47:41;;;;;;;2.65;0.70;;;;;;;20.17;100.00;98743.09;5051402;28;20200;-74
2022/09/18 00:50:13;;;;;;;1.10;1.10;;;;;;;20.14;100.00;98756.38;5051312;28;20195;-74
2022/09/18 00:52:50;;;;;;;3.15;1.08;;;;;;;19.90;100.00;98768.00;5051032;28;20721;-75
2022/09/18 00:55:21;;;;;;;2.90;0.90;;;;;;;19.61;100.00;98771.03;5051103;28;20198;-75
2022/09/18 00:57:53;;;;;;;0.98;0.98;;;;;;;19.49;100.00;98768.91;5032358;28;20283;-74
2022/09/18 01:00:20;;;;;;;2.88;1.35;;;;;;;19.42;100.00;98780.59;5032236;28;20245;-75
2022/09/18 01:02:48;;;;;;;1.45;1.10;;;;;;;19.16;100.00;98786.88;5049902;28;20231;-75
2022/09/18 01:05:18;;;;;;;1.00;1.00;;;;;;;19.01;100.00;98756.84;5051217;28;20302;-74
2022/09/18 01:08:01;;;;;;;0.90;0.90;;;;;;;19.10;100.00;98788.00;5050960;28;20211;-73
2022/09/18 01:10:40;;;;;;;1.02;0.70;;;;;;;19.15;100.00;98814.09;5051043;28;20199;-73
2022/09/18 01:13:19;;;;;;;0.77;0.77;;;;;;;18.69;100.00;98822.91;5050911;28;20225;-73
2022/09/18 01:15:51;;;;;;;4.13;0.90;;;;;;;18.70;100.00;98822.81;5050786;28;20203;-73
2022/09/18 01:18:26;;;;;;;2.80;0.80;;;;;;;18.41;100.00;98843.19;5050675;28;20199;-73
2022/09/18 01:21:11;;;;;;;3.88;0.88;;;;;;;18.44;100.00;98864.06;5050824;28;20249;-73
2022/09/18 01:24:10;;;;;;;2.83;0.80;;;;;;;18.41;100.00;98841.38;5050851;28;20223;-73
2022/09/18 01:26:54;;;;;;;1.88;0.88;;;;;;;18.33;100.00;98856.59;4987079;28;21015;-74
2022/09/18 01:29:30;;;;;;;8.05;1.00;;;;;;;18.25;100.00;98861.25;4985505;28;20233;-73
2022/09/18 01:32:04;;;;;;;0.80;0.80;;;;;;;18.19;100.00;98862.28;4986672;28;20205;-74
2022/09/18 01:34:37;;;;;;;0.80;0.80;;;;;;;18.02;100.00;98892.66;4988816;28;20206;-74
2022/09/18 01:37:12;;;;;;;1.33;0.80;;;;;;;17.95;100.00;98892.00;4988608;28;20646;-73
2022/09/18 01:39:42;;;;;;;0.60;0.60;;;;;;;17.83;100.00;98887.19;4988839;28;20231;-73
2022/09/18 01:42:12;;;;;;;3.13;0.80;;;;;;;17.72;100.00;98886.69;4988898;28;20696;-73
2022/09/18 01:44:44;;;;;;;0.70;0.70;;;;;;;17.90;100.00;98930.66;4988728;28;20229;-74
2022/09/18 01:47:14;;;;;;;4.57;0.80;;;;;;;17.71;100.00;98924.28;4988917;28;20723;-74
2022/09/18 01:49:45;;;;;;;0.90;0.90;;;;;;;17.79;100.00;98922.28;4988668;28;20260;-74
2022/09/18 01:52:18;;;;;;;0.60;0.60;;;;;;;17.69;100.00;98963.66;4988765;28;20202;-74
2022/09/18 01:54:49;;;;;;;0.73;0.73;;;;;;;17.52;100.00;98959.81;4988707;28;20213;-73
2022/09/18 01:57:22;;;;;;;0.82;0.82;;;;;;;17.42;100.00;98947.88;4988793;28;20677;-74
2022/09/18 01:59:55;;;;;;;0.60;0.60;;;;;;;17.72;100.00;98954.84;4988491;28;20244;-74
2022/09/18 02:02:28;;;;;;;4.18;0.50;;;;;;;17.62;100.00;98961.28;4988664;28;20256;-74
2022/09/18 02:05:02;;;;;;;4.15;0.70;;;;;;;17.66;100.00;98973.38;5050339;28;20704;-74
2022/09/18 02:07:35;;;;;;;0.95;0.52;;;;;;;17.44;100.00;98977.53;5050565;28;20562;-74
2022/09/18 02:10:03;;;;;;;0.57;0.57;;;;;;;17.18;100.00;98994.91;5050062;28;20621;-74
2022/09/18 02:12:35;;;;;;;0.60;0.60;;;;;;;17.09;100.00;98986.44;5050154;28;20213;-74
2022/09/18 02:15:09;;;;;;;0.68;0.68;;;;;;;17.09;100.00;99008.25;5052756;28;20619;-74
2022/09/18 02:17:43;;;;;;;0.60;0.60;;;;;;;16.93;100.00;98991.25;5054010;28;20210;-73
2022/09/18 02:20:14;;;;;;;0.70;0.70;;;;;;;17.05;100.00;99008.41;5053948;28;20217;-74
2022/09/18 02:22:43;;;;;;;0.50;0.50;;;;;;;17.00;100.00;99007.66;5053768;28;20199;-74
2022/09/18 02:25:15;;;;;;;0.63;0.63;;;;;;;16.56;100.00;98933.81;5053792;28;20674;-74
2022/09/18 02:27:42;;;;;;;1.55;0.60;;;;;;;16.78;100.00;99017.84;5053981;28;20246;-74
2022/09/18 02:30:12;;;;;;;0.60;0.60;;;;;;;17.02;100.00;99045.13;5053809;28;20226;-73
2022/09/18 02:32:40;;;;;;;0.60;0.60;;;;;;;16.88;100.00;99034.16;5049835;28;20271;-73
2022/09/18 02:35:09;;;;;;;0.65;0.65;;;;;;;16.49;100.00;99009.88;5049081;28;20200;-75
2022/09/18 02:37:41;;;;;;;2.63;0.70;;;;;;;16.71;100.00;99060.81;5053624;28;20207;-74
2022/09/18 02:40:19;;;;;;;0.80;0.70;;;;;;;16.69;100.00;99075.69;5034742;28;20222;-74
2022/09/18 02:42:56;;;;;;;1.75;0.70;;;;;;;16.62;100.00;99092.47;5053613;28;20210;-74
2022/09/18 02:45:32;;;;;;;1.30;0.80;;;;;;;16.77;100.00;99087.66;5053377;28;20571;-74
2022/09/18 02:48:15;;;;;;;0.70;0.65;;;;;;;16.81;100.00;99091.06;5053549;28;20581;-74
2022/09/18 02:50:49;;;;;;;0.70;0.70;;;;;;;16.69;100.00;99096.63;5053690;28;20210;-74
2022/09/18 02:53:23;;;;;;;1.65;0.70;;;;;;;16.55;100.00;99094.31;5053438;28;20203;-73
2022/09/18 02:55:55;;;;;;;0.70;0.70;;;;;;;16.57;100.00;99087.34;5053487;28;20195;-74
2022/09/18 02:58:33;;;;;;;0.80;0.80;;;;;;;16.75;100.00;99092.09;5053281;28;20207;-74
2022/09/18 03:01:04;;;;;;;0.80;0.80;;;;;;;16.52;100.00;99106.63;5053077;28;20209;-74
2022/09/18 03:03:37;;;;;;;0.70;0.70;;;;;;;16.54;100.00;99133.63;5053124;28;20297;-75
2022/09/18 03:06:04;;;;;;;2.35;0.80;;;;;;;16.11;100.00;99134.63;5053418;28;20211;-75
2022/09/18 03:08:31;;;;;;;0.80;0.80;;;;;;;16.03;100.00;99149.63;5052858;28;20566;-73
2022/09/18 03:10:57;;;;;;;2.72;1.05;;;;;;;15.86;100.00;99134.31;5053061;28;20191;-73
2022/09/18 03:13:24;;;;;;;0.70;0.70;;;;;;;15.87;100.00;99129.94;5053203;28;20646;-73
2022/09/18 03:15:51;;;;;;;0.80;0.80;;;;;;;15.61;100.00;99106.09;5053246;28;20208;-73
2022/09/18 03:18:19;;;;;;;1.00;1.00;;;;;;;15.98;100.00;99150.63;5053258;28;20200;-73
2022/09/18 03:20:46;;;;;;;1.00;1.00;;;;;;;15.87;100.00;99167.38;5052812;28;20218;-73
2022/09/18 03:23:13;;;;;;;0.90;0.90;;;;;;;15.85;100.00;99186.59;5052893;28;20234;-73
2022/09/18 03:25:39;;;;;;;0.90;0.90;;;;;;;15.80;100.00;99170.19;5051906;28;20195;-74
2022/09/18 03:28:06;;;;;;;1.00;1.00;;;;;;;15.75;100.00;99183.34;5052864;28;20203;-74
2022/09/18 03:30:33;;;;;;;1.10;1.00;;;;;;;15.68;100.00;99207.00;5052413;28;20202;-73
2022/09/18 03:33:00;;;;;;;4.50;0.90;;;;;;;15.67;100.00;99197.44;5052595;28;20200;-73
2022/09/18 03:35:28;;;;;;;1.20;0.90;;;;;;;15.67;100.00;99205.25;5049748;28;20585;-73
2022/09/18 03:37:55;;;;;;;1.10;1.00;;;;;;;15.38;100.00;99198.81;5045887;28;20212;-74
2022/09/18 03:40:22;;;;;;;0.80;0.80;;;;;;;15.32;100.00;99188.50;5033747;28;20203;-73
2022/09/18 03:42:49;;;;;;;2.78;0.90;;;;;;;15.27;100.00;99200.75;5052432;28;20203;-73
2022/09/18 03:45:16;;;;;;;0.90;0.90;;;;;;;15.10;100.00;99217.59;5052391;28;20239;-73
2022/09/18 03:47:43;;;;;;;2.40;1.00;;;;;;;15.29;100.00;99235.56;5017193;28;20290;-74
2022/09/18 03:50:10;;;;;;;1.75;0.70;;;;;;;15.19;100.00;99202.66;5052395;28;20199;-73
2022/09/18 03:52:39;;;;;;;1.20;1.20;;;;;;;15.58;100.00;99231.59;5051923;28;20556;-73
2022/09/18 03:55:06;;;;;;;1.83;0.88;;;;;;;15.47;100.00;99228.28;5052516;28;20199;-73
2022/09/18 03:57:33;;;;;;;3.85;0.80;;;;;;;15.14;100.00;99229.72;5052166;28;20195;-73
2022/09/18 04:00:00;;;;;;;1.17;1.08;;;;;;;15.01;100.00;99208.22;5016984;28;20651;-73
2022/09/18 04:02:26;;;;;;;1.00;0.80;;;;;;;15.12;100.00;99214.09;5052059;28;20914;-73
2022/09/18 04:04:53;;;;;;;1.25;1.25;;;;;;;14.70;100.00;99201.72;5051947;28;20711;-73
2022/09/18 04:07:20;;;;;;;0.95;0.95;;;;;;;14.90;100.00;99262.34;5052191;28;20219;-74
2022/09/18 04:09:48;;;;;;;0.70;0.70;;;;;;;15.03;100.00;99242.09;5051947;28;20671;-73
2022/09/18 04:12:15;;;;;;;1.20;1.00;;;;;;;15.01;100.00;99275.22;5016900;28;20207;-74
2022/09/18 04:14:42;;;;;;;0.90;0.90;;;;;;;15.19;100.00;99281.00;5016634;28;20199;-74
2022/09/18 04:17:09;;;;;;;0.77;0.77;;;;;;;15.22;100.00;99285.31;5016703;28;20202;-73
2022/09/18 04:19:36;;;;;;;0.80;0.80;;;;;;;15.15;100.00;99281.06;5051550;28;20204;-73
2022/09/18 04:22:03;;;;;;;1.15;0.80;;;;;;;15.05;100.00;99249.03;5051761;28;20660;-73
2022/09/18 04:24:30;;;;;;;0.80;0.80;;;;;;;15.32;100.00;99277.28;5051428;28;20317;-74
2022/09/18 04:26:58;;;;;;;3.78;0.98;;;;;;;15.67;100.00;99286.28;5051547;28;20199;-75
2022/09/18 04:29:25;;;;;;;8.50;1.08;;;;;;;15.58;100.00;99291.69;5051571;28;20660;-74
2022/09/18 04:31:51;;;;;;;2.38;0.90;;;;;;;15.36;100.00;99246.75;5032645;28;20217;-73
2022/09/18 04:34:18;;;;;;;0.90;0.90;;;;;;;15.60;100.00;99302.97;5051330;28;20208;-72
2022/09/18 04:36:45;;;;;;;0.90;0.90;;;;;;;15.68;100.00;99301.94;5016207;28;20199;-75
2022/09/18 04:39:12;;;;;;;0.90;0.90;;;;;;;15.67;100.00;99281.06;5014154;28;20212;-76
2022/09/18 04:41:39;;;;;;;2.05;0.70;;;;;;;15.63;100.00;99314.22;5044398;28;20290;-72
2022/09/18 04:44:07;;;;;;;0.80;0.80;;;;;;;15.75;100.00;99298.31;5051271;28;20215;-71
2022/09/18 04:46:34;;;;;;;0.70;0.70;;;;;;;15.64;100.00;99300.28;5050732;28;20596;-72
2022/09/18 04:49:00;;;;;;;3.03;0.90;;;;;;;15.70;100.00;99321.06;5051260;28;20842;-72
2022/09/18 04:51:27;;;;;;;0.93;0.93;;;;;;;15.39;100.00;99305.03;5050650;28;20663;-74
2022/09/18 04:53:54;;;;;;;1.15;1.15;;;;;;;15.32;100.00;99298.19;5049805;28;20191;-73
2022/09/18 04:56:21;;;;;;;2.70;1.10;;;;;;;15.29;100.00;99282.56;5050488;28;20208;-74
2022/09/18 04:58:48;;;;;;;1.58;1.02;;;;;;;15.36;100.00;99336.44;5050675;28;20207;-74
2022/09/18 05:01:17;;;;;;;0.90;0.90;;;;;;;15.46;100.00;99320.59;5048345;28;20200;-73
2022/09/18 05:03:44;;;;;;;1.13;1.13;;;;;;;15.49;100.00;99350.19;5048292;28;20767;-74
2022/09/18 05:06:10;;;;;;;3.60;1.40;;;;;;;15.46;100.00;99362.41;5050379;28;20561;-74
2022/09/18 05:08:37;;;;;;;1.00;0.90;;;;;;;15.46;100.00;99363.25;5015232;28;20622;-73
2022/09/18 05:11:04;;;;;;;1.00;1.00;;;;;;;15.14;100.00;99301.09;5023519;28;20200;-75
2022/09/18 05:13:31;;;;;;;1.77;1.00;;;;;;;15.33;100.00;99331.25;5050464;28;20245;-73
2022/09/18 05:15:58;;;;;;;2.15;1.00;;;;;;;15.51;100.00;99361.47;5031505;28;20233;-72
2022/09/18 05:18:26;;;;;;;2.28;1.52;;;;;;;15.82;98.88;99372.25;5050244;28;20897;-73
2022/09/18 05:20:53;;;;;;;4.88;1.10;;;;;;;15.65;100.00;99366.47;5050495;28;20277;-72
2022/09/18 05:23:20;;;;;;;1.08;1.08;;;;;;;15.38;97.46;99333.78;5050328;28;20199;-73
2022/09/18 05:25:47;;;;;;;1.35;1.35;;;;;;;15.46;96.47;99362.41;5050611;28;20288;-73
2022/09/18 05:28:15;;;;;;;4.18;1.20;;;;;;;15.65;96.54;99385.63;5050291;28;20690;-73
2022/09/18 05:30:42;;;;;;;4.35;1.67;;;;;;;15.66;95.58;99391.72;5050834;28;20305;-74
2022/09/18 05:33:11;;;;;;;1.50;1.40;;;;;;;15.77;94.71;99389.75;5050756;28;20298;-74
2022/09/18 05:35:39;;;;;;;1.17;1.13;;;;;;;15.28;94.34;99322.63;5050531;28;20199;-74
2022/09/18 05:38:06;;;;;;;5.63;1.20;;;;;;;15.59;93.73;99382.25;5046885;28;20211;-73
2022/09/18 05:40:35;;;;;;;3.60;1.50;;;;;;;15.61;94.17;99407.47;5047423;28;20298;-77
2022/09/18 05:43:03;;;;;;;1.48;1.48;;;;;;;15.61;93.24;99370.03;5048165;28;20208;-73
2022/09/18 05:45:30;;;;;;;2.67;1.40;;;;;;;15.37;92.65;99322.47;5048071;28;21874;-73
2022/09/18 05:47:58;;;;;;;3.85;1.52;;;;;;;15.79;92.18;99356.63;5046486;28;20615;-72
2022/09/18 05:50:26;;;;;;;1.13;1.13;;;;;;;15.83;91.64;99390.56;5051450;28;20203;-73
2022/09/18 05:53:01;;;;;;;1.35;1.35;;;;;;;15.88;90.76;99380.00;5052865;28;20839;-73
2022/09/18 05:55:29;;;;;;;1.35;1.35;;;;;;;15.77;89.10;99374.09;5042520;28;20679;-74
2022/09/18 05:57:57;;;;;;;1.70;1.60;;;;;;;15.72;88.84;99358.50;5051960;28;20199;-74
2022/09/18 06:00:25;;;;;;;1.67;1.67;;;;;;;15.35;89.17;99339.06;5048843;28;20223;-72
2022/09/18 06:02:53;;;;;;;1.80;1.73;;;;;;;15.89;89.55;99407.88;5051621;28;20247;-72
2022/09/18 06:05:20;;;;;;;1.73;1.73;;;;;;;15.31;90.76;99335.63;5049789;28;20223;-74
2022/09/18 06:07:47;;;;;;;2.95;2.22;;;;;;;15.83;89.40;99426.28;5063310;28;20207;-74
2022/09/18 06:10:17;;;;;;;1.55;1.45;;;;;;;15.80;89.46;99374.88;5070145;28;20241;-74
2022/09/18 06:12:44;;;;;;;2.05;1.50;;;;;;;15.96;87.95;99427.78;5066331;28;20202;-72
2022/09/18 06:15:12;;;;;;;2.05;1.95;;;;;;;16.06;87.69;99429.34;5063442;28;20211;-75
2022/09/18 06:17:39;;;;;;;1.20;1.20;;;;;;;15.67;87.18;99330.72;5070194;28;20218;-77
2022/09/18 06:20:08;;;;;;;1.58;1.52;;;;;;;16.37;85.72;99422.66;5058072;28;20196;-74
2022/09/18 06:22:35;;;;;;;24.08;9.75;;;;;;;16.30;83.72;99391.44;5069900;28;20207;-74
2022/09/18 06:25:02;;;;;;;8.48;2.63;;;;;;;16.56;82.75;99419.72;5067081;28;20227;-74
2022/09/18 06:27:30;;;;;;;8.73;1.60;;;;;;;16.60;81.53;99429.25;5068173;28;20214;-75
2022/09/18 06:29:57;;;;;;;1.58;1.48;;;;;;;16.94;80.77;99437.28;5056491;28;20211;-73
2022/09/18 06:32:24;;;;;;;9.15;1.75;;;;;;;16.81;79.71;99458.47;5054378;28;20293;-74
2022/09/18 06:34:51;;;;;;;5.03;1.95;;;;;;;17.12;78.38;99466.53;5072852;28;20717;-81
2022/09/18 06:37:18;;;;;;;1.63;1.52;;;;;;;16.77;78.26;99471.66;5072932;28;20199;-73
2022/09/18 06:39:45;;;;;;;1.95;1.85;;;;;;;16.60;78.82;99445.81;5071537;28;20268;-71
2022/09/18 06:42:12;;;;;;;2.00;1.90;;;;;;;16.50;80.34;99464.31;5073007;28;20601;-74
2022/09/18 06:44:40;;;;;;;2.80;2.08;;;;;;;16.51;81.36;99461.69;5072706;28;20688;-74
2022/09/18 06:47:07;;;;;;;2.33;2.22;;;;;;;16.37;81.83;99466.31;5072891;28;20211;-74
2022/09/18 06:49:34;;;;;;;1.77;1.70;;;;;;;16.30;81.65;99468.13;5049402;28;20231;-76
2022/09/18 06:52:01;;;;;;;2.58;2.28;;;;;;;16.39;81.84;99459.28;5055374;28;20210;-75
2022/09/18 06:54:28;;;;;;;1.80;1.70;;;;;;;16.15;81.66;99460.59;5073340;28;20206;-75
2022/09/18 06:56:55;;;;;;;19.33;2.10;;;;;;;16.28;81.21;99480.41;5058739;28;20203;-73
2022/09/18 06:59:22;;;;;;;4.57;1.40;;;;;;;16.39;79.16;99472.34;5048737;28;20652;-73
2022/09/18 07:01:50;;;;;;;2.47;2.00;;;;;;;16.45;78.64;99459.16;5051306;28;20282;-74
2022/09/18 07:04:17;;;;;;;1.48;1.48;;;;;;;16.05;78.49;99405.84;5051092;28;20570;-74
2022/09/18 07:06:45;;;;;;;1.70;1.65;;;;;;;16.70;77.21;99470.03;5053883;28;20222;-75
2022/09/18 07:09:12;;;;;;;3.35;2.83;;;;;;;16.61;76.63;99480.72;5053017;28;20218;-74
2022/09/18 07:11:39;;;;;;;19.67;1.90;;;;;;;16.61;76.75;99471.09;5069647;28;20279;-72
2022/09/18 07:14:07;;;;;;;2.38;1.90;;;;;;;16.79;75.77;99443.69;5066382;28;20202;-73
2022/09/18 07:16:34;;;;;;;1.63;1.63;;;;;;;17.06;74.95;99463.19;5070828;28;20230;-73
2022/09/18 07:19:02;;;;;;;1.23;1.23;;;;;;;17.19;74.19;99470.75;5063748;28;20214;-72
2022/09/18 07:21:28;;;;;;;1.67;1.58;;;;;;;17.20;73.89;99472.50;5051872;28;20199;-75
2022/09/18 07:23:55;;;;;;;3.30;1.48;;;;;;;17.14;73.59;99430.72;5052599;28;20200;-75
2022/09/18 07:26:22;;;;;;;6.70;1.88;;;;;;;17.57;72.78;99448.13;5059260;28;20637;-77
2022/09/18 07:28:51;;;;;;;1.90;1.80;;;;;;;17.69;70.35;99482.75;5029538;28;20664;-77
2022/09/18 07:31:17;;;;;;;3.80;1.73;;;;;;;17.73;69.99;99467.81;5068341;28;20664;-78
2022/09/18 07:33:44;;;;;;;10.52;1.90;;;;;;;17.75;69.25;99481.78;5053443;28;20208;-77
2022/09/18 07:36:12;;;;;;;1.60;1.50;;;;;;;17.64;68.32;99473.28;5057543;28;20203;-82
2022/09/18 07:38:40;;;;;;;1.80;1.58;;;;;;;17.68;67.84;99473.19;5064844;28;20209;-76
2022/09/18 07:41:06;;;;;;;1.40;1.20;;;;;;;17.87;67.44;99485.88;5059446;28;20198;-75
2022/09/18 07:43:33;;;;;;;1.30;1.30;;;;;;;17.87;66.54;99473.63;5051974;28;20257;-76
2022/09/18 07:46:01;;;;;;;4.60;1.10;;;;;;;17.83;66.92;99467.59;5053571;28;20245;-79
2022/09/18 07:48:28;;;;;;;1.40;1.17;;;;;;;17.95;64.78;99453.28;5055178;28;20204;-80
2022/09/18 07:50:57;;;;;;;1.77;1.60;;;;;;;17.86;66.16;99492.00;5051432;28;20761;-83
2022/09/18 07:53:25;;;;;;;1.50;1.40;;;;;;;18.22;65.92;99494.59;5068403;28;20283;-83
2022/09/18 07:55:54;;;;;;;3.45;1.58;;;;;;;18.43;63.98;99502.81;5061965;28;20211;-88
2022/09/18 07:58:21;;;;;;;1.20;1.20;;;;;;;18.46;63.12;99492.22;5054684;28;20214;-82
2022/09/18 08:00:48;;;;;;;7.32;1.40;;;;;;;18.36;63.21;99502.13;5063087;28;20671;-81
2022/09/18 08:03:14;;;;;;;1.38;1.38;;;;;;;18.77;64.07;99503.66;5065086;28;20214;-81
2022/09/18 08:05:42;;;;;;;3.90;1.60;;;;;;;18.71;62.02;99507.31;5065849;28;20237;-82
2022/09/18 08:08:11;;;;;;;1.45;1.38;;;;;;;18.46;61.64;99451.09;5032436;28;20215;-84
2022/09/18 08:10:42;;;;;;;2.47;1.40;;;;;;;18.57;60.21;99490.22;5059858;28;20213;-77
2022/09/18 08:13:09;;;;;;;8.85;1.25;;;;;;;18.13;61.20;99484.31;5070758;28;20297;-77
2022/09/18 08:15:38;;;;;;;1.10;1.10;;;;;;;18.64;61.14;99486.53;5070755;28;20206;-79
2022/09/18 08:18:05;;;;;;;7.97;1.38;;;;;;;18.42;60.92;99511.56;5034642;28;20619;-79
2022/09/18 08:20:32;;;;;;;1.20;1.20;;;;;;;18.61;60.61;99497.97;5070757;28;20215;-78
2022/09/18 08:23:01;;;;;;;4.88;1.80;;;;;;;18.55;60.47;99495.50;5042154;28;20211;-75
2022/09/18 08:25:29;;;;;;;5.05;1.77;;;;;;;18.69;60.31;99495.16;5058881;28;20227;-74
2022/09/18 08:28:00;;;;;;;1.58;1.00;;;;;;;18.82;59.88;99470.25;5070918;28;20305;-78
2022/09/18 08:30:27;;;;;;;4.78;1.98;;;;;;;18.85;59.14;99500.81;5056157;28;20200;-77
2022/09/18 08:32:59;;;;;;;3.80;1.60;;;;;;;18.88;59.07;99485.84;5034716;28;20210;-79
2022/09/18 08:35:26;;;;;;;3.53;1.40;;;;;;;18.92;59.07;99500.63;5064231;28;20275;-78
2022/09/18 08:37:54;;;;;;;1.63;1.52;;;;;;;19.17;59.21;99493.75;5064765;28;20286;-75
2022/09/18 08:40:29;;;;;;;3.15;1.65;;;;;;;19.35;58.10;99502.00;5061769;28;20195;-78
2022/09/18 08:43:08;;;;;;;7.43;1.45;;;;;;;19.22;56.99;99491.00;5069472;28;20198;-75
2022/09/18 08:45:48;;;;;;;1.00;1.00;;;;;;;19.23;56.63;99493.56;5065978;28;20246;-75
2022/09/18 08:48:20;;;;;;;1.90;1.20;;;;;;;19.31;56.94;99507.34;5064484;28;20256;-76
2022/09/18 08:50:53;;;;;;;1.23;1.20;;;;;;;19.50;56.65;99520.84;5049582;28;20214;-77
2022/09/18 08:53:26;;;;;;;11.05;1.67;;;;;;;19.43;56.84;99515.81;5064516;28;20566;-75
2022/09/18 08:55:54;;;;;;;7.22;1.67;;;;;;;19.21;56.57;99484.00;5059966;28;20547;-78
2022/09/18 08:58:29;;;;;;;5.32;1.10;;;;;;;19.23;56.98;99503.22;5065973;28;20213;-77
2022/09/18 09:01:01;;;;;;;3.30;1.10;;;;;;;19.25;56.74;99496.16;5010496;28;20203;-75
2022/09/18 09:03:36;;;;;;;3.78;1.05;;;;;;;19.24;55.92;99482.16;5066637;28;20674;-79
2022/09/18 09:06:19;;;;;;;0.82;0.82;;;;;;;19.49;56.26;99486.69;5060821;28;20219;-80
2022/09/18 09:09:15;;;;;;;5.78;1.27;;;;;;;19.75;56.50;99510.44;5064924;28;20237;-84
2022/09/18 09:11:48;;;;;;;1.60;1.17;;;;;;;19.61;56.85;99515.25;5059430;28;20212;-85
2022/09/18 09:14:28;;;;;;;3.47;1.40;;;;;;;19.56;56.75;99511.91;5044149;28;20671;-81
2022/09/18 09:17:04;;;;;;;0.93;0.93;;;;;;;19.64;56.17;99496.75;5059331;28;20375;-81
2022/09/18 09:19:41;;;;;;;2.13;1.38;;;;;;;19.63;55.15;99534.47;5059980;28;20282;-81
2022/09/18 09:22:16;;;;;;;5.88;1.50;;;;;;;19.75;55.65;99524.44;5059003;28;20665;-84
2022/09/18 09:24:54;;;;;;;8.18;1.77;;;;;;;19.79;55.68;99519.94;5062459;28;20653;-82
2022/09/18 09:27:25;;;;;;;8.13;1.33;;;;;;;19.66;55.13;99494.91;5065337;28;20210;-78
2022/09/18 09:30:01;;;;;;;2.00;1.17;;;;;;;19.95;54.65;99534.34;5040451;28;20288;-77
2022/09/18 09:32:34;;;;;;;2.42;1.10;;;;;;;19.83;54.83;99525.97;5057216;28;20198;-75
2022/09/18 09:35:15;;;;;;;7.03;1.10;;;;;;;19.54;54.29;99522.47;5057247;28;20276;-76
2022/09/18 09:37:46;;;;;;;2.88;1.15;;;;;;;19.61;53.85;99547.69;5059272;28;20206;-75
2022/09/18 09:40:18;;;;;;;3.72;1.10;;;;;;;19.79;53.67;99562.03;5054496;28;20202;-75
2022/09/18 09:42:51;;;;;;;3.78;1.20;;;;;;;19.74;54.05;99574.47;5009888;28;20655;-75
2022/09/18 09:45:28;;;;;;;7.97;1.15;;;;;;;19.79;54.04;99546.25;5063560;28;20648;-75
2022/09/18 09:48:04;;;;;;;1.00;1.00;;;;;;;19.61;54.34;99538.94;5067879;28;20209;-75
2022/09/18 09:50:43;;;;;;;1.48;1.00;;;;;;;20.05;54.16;99559.44;5062941;28;20588;-76
2022/09/18 09:53:11;;;;;;;6.32;1.35;;;;;;;20.05;53.91;99548.03;5052478;28;20606;-77
2022/09/18 09:55:49;;;;;;;2.13;1.20;;;;;;;20.14;54.13;99543.38;5061336;28;20212;-77
2022/09/18 09:58:28;;;;;;;4.78;1.25;;;;;;;20.32;53.54;99570.03;5066622;28;20683;-75
2022/09/18 10:01:06;;;;;;;2.78;1.10;;;;;;;20.33;53.15;99569.13;5059331;28;20204;-76
2022/09/18 10:03:41;;;;;;;9.80;1.17;;;;;;;20.05;52.70;99548.03;5004452;28;20203;-76
2022/09/18 10:06:29;;;;;;;3.85;1.17;;;;;;;20.32;52.24;99575.31;5042913;28;20604;-76
2022/09/18 10:09:02;;;;;;;10.10;0.95;;;;;;;20.28;52.22;99577.19;5042731;28;20204;-78
2022/09/18 10:11:31;;;;;;;3.67;1.20;;;;;;;20.39;51.59;99597.88;5065301;28;20210;-77
2022/09/18 10:14:02;;;;;;;4.05;1.30;;;;;;;20.34;51.54;99598.03;5066231;28;20210;-75
2022/09/18 10:16:35;;;;;;;1.48;1.00;;;;;;;20.20;51.42;99587.91;5045397;28;20293;-77
2022/09/18 10:19:04;;;;;;;20.58;1.38;;;;;;;20.30;51.46;99606.09;5070057;28;20206;-77
2022/09/18 10:21:35;;;;;;;3.25;0.98;;;;;;;20.03;51.04;99576.19;5053530;28;20242;-77
2022/09/18 10:24:14;;;;;;;8.18;1.00;;;;;;;20.22;50.67;99607.19;5056606;28;20210;-75
2022/09/18 10:26:45;;;;;;;1.27;0.90;;;;;;;20.11;51.31;99600.53;5055255;28;20224;-77
2022/09/18 10:29:12;;;;;;;4.47;1.27;;;;;;;20.09;51.75;99613.72;5062569;28;20203;-77
2022/09/18 10:31:51;;;;;;;2.85;1.17;;;;;;;20.42;51.13;99587.25;5056853;28;20676;-76
2022/09/18 10:34:39;;;;;;;2.35;1.20;;;;;;;20.37;50.92;99602.38;5041827;28;20215;-73
2022/09/18 10:37:13;;;;;;;5.05;1.25;;;;;;;20.60;51.10;99599.81;5051901;28;20215;-76
2022/09/18 10:39:48;;;;;;;2.67;1.40;;;;;;;20.45;50.08;99602.94;5054211;28;20211;-76
2022/09/18 10:42:18;;;;;;;10.23;5.60;;;;;;;20.33;50.59;99595.47;5036955;28;20198;-73
2022/09/18 10:44:52;;;;;;;6.32;1.60;;;;;;;19.97;51.58;99598.31;5044680;28;20234;-74
2022/09/18 10:47:26;;;;;;;1.05;1.00;;;;;;;20.20;51.26;99584.41;5020943;28;20330;-76
2022/09/18 10:49:55;;;;;;;1.50;1.05;;;;;;;20.21;51.14;99580.88;5063662;28;20296;-76
2022/09/18 10:52:30;;;;;;;7.72;1.38;;;;;;;20.30;51.00;99612.19;5068690;28;20290;-75
2022/09/18 10:55:11;;;;;;;5.20;1.30;;;;;;;20.36;51.07;99598.00;5070448;28;20217;-75
2022/09/18 10:57:42;;;;;;;4.00;1.25;;;;;;;20.31;50.71;99597.28;5062591;28;20629;-76
2022/09/18 11:00:33;;;;;;;5.22;1.23;;;;;;;20.66;49.89;99604.88;5069921;28;20210;-75
2022/09/18 11:03:16;;;;;;;5.32;1.17;;;;;;;20.36;48.91;99590.09;5064757;28;20202;-76
2022/09/18 11:05:51;;;;;;;8.80;1.30;;;;;;;20.70;49.71;99607.38;5053603;28;20226;-77
2022/09/18 11:08:20;;;;;;;1.10;1.00;;;;;;;20.92;49.59;99619.81;5057266;28;20276;-77
2022/09/18 11:10:49;;;;;;;5.88;1.00;;;;;;;20.56;49.66;99617.50;5045120;28;20656;-76
2022/09/18 11:13:23;;;;;;;3.08;1.13;;;;;;;20.52;49.51;99599.19;5060545;28;20214;-77
2022/09/18 11:15:53;;;;;;;6.25;1.20;;;;;;;20.75;49.29;99597.53;5038178;28;20293;-76
2022/09/18 11:18:23;;;;;;;2.13;1.27;;;;;;;20.97;49.03;99631.94;5051974;28;20295;-75
2022/09/18 11:20:51;;;;;;;3.25;1.55;;;;;;;20.90;48.22;99630.41;5051862;28;20247;-75
2022/09/18 11:23:25;;;;;;;1.25;1.15;;;;;;;20.76;48.00;99651.94;5051637;28;20245;-75
2022/09/18 11:26:10;;;;;;;1.52;1.17;;;;;;;20.94;48.13;99647.81;5049575;28;20227;-75
2022/09/18 11:28:39;;;;;;;1.10;1.00;;;;;;;20.67;48.45;99636.44;5051164;28;20231;-76
2022/09/18 11:31:11;;;;;;;18.98;1.70;;;;;;;20.67;47.96;99625.03;5051607;28;20289;-76
2022/09/18 11:33:44;;;;;;;3.40;1.73;;;;;;;20.60;48.15;99618.25;5051384;28;20211;-75
2022/09/18 11:36:14;;;;;;;1.25;1.20;;;;;;;20.51;48.78;99626.47;5015733;28;20679;-76
2022/09/18 11:38:43;;;;;;;4.88;1.15;;;;;;;20.60;47.95;99628.78;5051475;28;20203;-76
2022/09/18 11:41:11;;;;;;;1.40;1.10;;;;;;;20.49;47.53;99667.78;5051281;28;20238;-76
2022/09/18 11:43:40;;;;;;;1.15;1.10;;;;;;;20.57;47.89;99668.41;5051344;28;20555;-77